Time;durP1;ratioP1;P1;durP2;ratioP2;P2;SDS_P1;SDS_P2;PMS_P1;PMS_P2;Temp;Humidity;BMP_temperature;BMP_pressure;BME280_temperature;BME280_humidity;BME280_pressure;Samples;Min_cycle;Max_cycle;Signal;HPM_P1;HPM_P2
2022/06/08 00:01:53;;;;;;;3.55;2.00;;;15.60;99.90;;;;;;4966131;28;20196;-62
2022/06/08 00:04:23;;;;;;;2.33;2.13;;;15.80;99.90;;;;;;4971299;28;20200;-62
2022/06/08 00:06:52;;;;;;;4.40;2.42;;;15.50;99.90;;;;;;4971173;28;20704;-62
2022/06/08 00:09:18;;;;;;;3.05;2.50;;;15.50;99.90;;;;;;4971345;28;20235;-62
2022/06/08 00:11:44;;;;;;;2.28;2.10;;;15.40;99.90;;;;;;4970391;28;20188;-62
2022/06/08 00:14:12;;;;;;;5.72;2.20;;;15.70;99.90;;;;;;4967819;28;20801;-62
2022/06/08 00:16:38;;;;;;;2.60;2.40;;;15.20;99.90;;;;;;4967417;28;20207;-62
2022/06/08 00:19:04;;;;;;;2.63;2.20;;;15.40;99.90;;;;;;4971378;28;20223;-62
2022/06/08 00:21:29;;;;;;;2.40;2.20;;;15.60;99.90;;;;;;4974313;28;20385;-62
2022/06/08 00:23:55;;;;;;;4.03;2.60;;;15.40;99.90;;;;;;4974432;28;20188;-62
2022/06/08 00:26:22;;;;;;;2.17;1.97;;;15.40;99.90;;;;;;4971474;28;20204;-62
2022/06/08 00:28:48;;;;;;;2.40;2.30;;;15.50;99.90;;;;;;4974829;28;20215;-62
2022/06/08 00:31:14;;;;;;;2.70;2.30;;;15.30;99.90;;;;;;4973818;28;20180;-62
2022/06/08 00:33:39;;;;;;;3.40;2.43;;;15.60;99.90;;;;;;4974758;28;20207;-62
2022/06/08 00:36:05;;;;;;;4.07;2.57;;;15.50;99.90;;;;;;4976546;28;20223;-62
2022/06/08 00:38:31;;;;;;;5.20;2.60;;;15.40;99.90;;;;;;4977988;28;20554;-62
2022/06/08 00:41:27;;;;;;;3.73;2.50;;;15.50;99.90;;;;;;4972885;28;20586;-62
2022/06/08 00:43:54;;;;;;;2.88;2.08;;;15.40;99.90;;;;;;4971818;28;20275;-62
2022/06/08 00:46:20;;;;;;;4.38;2.33;;;15.50;99.90;;;;;;4964612;28;20215;-62
2022/06/08 00:48:52;;;;;;;3.35;3.03;;;15.50;99.90;;;;;;4972013;28;20208;-62
2022/06/08 00:51:17;;;;;;;2.70;2.50;;;15.70;99.90;;;;;;4969527;28;20211;-62
2022/06/08 00:53:55;;;;;;;2.87;2.63;;;15.50;99.90;;;;;;4974033;28;20228;-62
2022/06/08 00:56:28;;;;;;;2.83;2.63;;;15.50;99.90;;;;;;4971733;28;20323;-62
2022/06/08 00:58:55;;;;;;;2.38;2.17;;;15.40;99.90;;;;;;4973728;28;20213;-62
2022/06/08 01:01:21;;;;;;;2.50;2.40;;;15.30;99.90;;;;;;4969900;28;20192;-62
2022/06/08 01:03:46;;;;;;;2.10;2.00;;;15.50;99.90;;;;;;4971950;28;20204;-62
2022/06/08 01:06:24;;;;;;;3.37;2.47;;;15.30;99.90;;;;;;4976030;28;20611;-62
2022/06/08 01:08:53;;;;;;;2.97;2.30;;;15.20;99.90;;;;;;4973810;28;20208;-62
2022/06/08 01:11:44;;;;;;;2.65;2.45;;;15.50;99.90;;;;;;4971499;28;20275;-62
2022/06/08 01:14:13;;;;;;;3.45;2.10;;;15.20;99.90;;;;;;4970268;28;20548;-63
2022/06/08 01:16:45;;;;;;;2.83;2.58;;;15.00;99.90;;;;;;4972016;28;20186;-63
2022/06/08 01:19:11;;;;;;;3.05;2.75;;;15.20;99.90;;;;;;4973117;28;20255;-63
2022/06/08 01:21:37;;;;;;;2.50;2.40;;;15.50;99.90;;;;;;4973046;28;20688;-63
2022/06/08 01:24:09;;;;;;;2.43;2.23;;;15.40;99.90;;;;;;4977584;28;20208;-63
2022/06/08 01:26:54;;;;;;;5.47;2.50;;;15.20;99.90;;;;;;4968333;28;20223;-63
2022/06/08 01:29:37;;;;;;;2.47;2.28;;;15.00;99.90;;;;;;4973121;28;20239;-63
2022/06/08 01:32:03;;;;;;;6.35;3.17;;;15.00;99.90;;;;;;4966935;28;20215;-63
2022/06/08 01:34:38;;;;;;;6.10;2.63;;;15.40;99.90;;;;;;4972820;28;20220;-63
2022/06/08 01:37:40;;;;;;;2.70;2.50;;;15.00;99.90;;;;;;4970818;28;20960;-63
2022/06/08 01:40:15;;;;;;;2.95;2.40;;;15.00;99.90;;;;;;4970136;28;20211;-63
2022/06/08 01:42:58;;;;;;;2.63;2.42;;;15.00;99.90;;;;;;4967870;28;20659;-63
2022/06/08 01:45:44;;;;;;;2.63;2.40;;;15.10;99.90;;;;;;4978037;28;20748;-63
2022/06/08 01:48:30;;;;;;;3.75;2.30;;;15.20;99.90;;;;;;4968215;28;20172;-63
2022/06/08 01:51:15;;;;;;;3.90;2.70;;;14.90;99.90;;;;;;4970804;28;20219;-63
2022/06/08 01:54:04;;;;;;;2.85;2.65;;;15.10;99.90;;;;;;4972969;28;20243;-63
2022/06/08 01:56:38;;;;;;;4.28;2.45;;;14.90;99.90;;;;;;4971570;28;20626;-63
2022/06/08 01:59:42;;;;;;;2.92;2.72;;;14.90;99.90;;;;;;4970651;28;20699;-63
2022/06/08 02:02:22;;;;;;;3.70;2.95;;;14.90;99.90;;;;;;4966117;28;20191;-63
2022/06/08 02:04:51;;;;;;;2.65;2.45;;;14.90;99.90;;;;;;4972840;28;20212;-63
2022/06/08 02:07:22;;;;;;;3.88;3.03;;;14.90;99.90;;;;;;4972361;28;20177;-63
2022/06/08 02:09:51;;;;;;;14.60;3.15;;;14.80;99.90;;;;;;4972886;28;20244;-63
2022/06/08 02:12:17;;;;;;;3.50;3.20;;;14.90;99.90;;;;;;4970613;28;20188;-63
2022/06/08 02:14:49;;;;;;;3.78;2.50;;;14.80;99.90;;;;;;4972761;28;20226;-63
2022/06/08 02:17:42;;;;;;;4.03;3.17;;;14.60;99.90;;;;;;4964601;28;20180;-63
2022/06/08 02:20:31;;;;;;;3.30;2.97;;;14.70;99.90;;;;;;4970254;28;20262;-63
2022/06/08 02:23:02;;;;;;;3.22;2.70;;;14.80;99.90;;;;;;4972301;28;20180;-63
2022/06/08 02:25:36;;;;;;;2.75;2.55;;;14.80;99.90;;;;;;4971529;28;20214;-63
2022/06/08 02:28:29;;;;;;;2.80;2.60;;;14.80;99.90;;;;;;4971887;28;20184;-63
2022/06/08 02:31:17;;;;;;;3.70;2.55;;;14.80;99.90;;;;;;4971779;28;20196;-63
2022/06/08 02:36:58;;;;;;;3.85;2.30;;;14.70;99.90;;;;;;4971664;28;20311;-63
2022/06/08 02:39:53;;;;;;;2.33;2.13;;;14.70;99.90;;;;;;4969294;28;20246;-65
2022/06/08 02:42:28;;;;;;;4.57;3.00;;;14.90;99.90;;;;;;4965063;28;20255;-64
2022/06/08 02:44:58;;;;;;;3.05;2.10;;;14.80;99.90;;;;;;4978024;28;20183;-65
2022/06/08 02:47:33;;;;;;;2.85;2.65;;;14.80;99.90;;;;;;4965505;28;20187;-66
2022/06/08 02:50:12;;;;;;;3.00;2.70;;;14.80;99.90;;;;;;4972209;28;20258;-68
2022/06/08 02:52:44;;;;;;;3.72;2.70;;;14.70;99.90;;;;;;4966607;28;20262;-64
2022/06/08 02:55:16;;;;;;;3.67;2.95;;;14.80;99.90;;;;;;4971326;28;20538;-65
2022/06/08 02:58:02;;;;;;;4.03;2.72;;;14.50;99.90;;;;;;4968617;28;20196;-68
2022/06/08 03:00:36;;;;;;;2.90;2.70;;;14.60;99.90;;;;;;4970914;28;20286;-67
2022/06/08 03:03:08;;;;;;;3.05;2.85;;;14.30;99.90;;;;;;4967889;28;20191;-67
2022/06/08 03:05:40;;;;;;;3.45;2.60;;;14.30;99.90;;;;;;4969818;28;20227;-65
2022/06/08 03:08:16;;;;;;;3.35;2.78;;;14.40;99.90;;;;;;4967775;28;20259;-65
2022/06/08 03:10:45;;;;;;;4.88;2.53;;;14.20;99.90;;;;;;4968080;28;20657;-65
2022/06/08 03:13:28;;;;;;;2.60;2.40;;;14.20;99.90;;;;;;4971841;28;20176;-67
2022/06/08 03:15:57;;;;;;;2.90;2.70;;;14.30;99.90;;;;;;4969774;28;20668;-66
2022/06/08 03:18:23;;;;;;;2.67;2.42;;;14.30;99.90;;;;;;4970968;28;20188;-66
2022/06/08 03:20:49;;;;;;;3.83;3.13;;;14.20;99.90;;;;;;4971952;28;20226;-67
2022/06/08 03:23:15;;;;;;;2.50;2.30;;;14.40;99.90;;;;;;4975765;28;20658;-65
2022/06/08 03:25:41;;;;;;;3.10;2.80;;;14.40;99.90;;;;;;4970832;28;20216;-65
2022/06/08 03:28:07;;;;;;;4.55;2.60;;;14.50;99.90;;;;;;4971346;28;20439;-65
2022/06/08 03:30:33;;;;;;;3.23;2.53;;;14.60;99.90;;;;;;4971390;28;20689;-65
2022/06/08 03:32:59;;;;;;;2.97;2.50;;;14.70;99.90;;;;;;4970630;28;20435;-65
2022/06/08 03:35:24;;;;;;;3.17;2.90;;;14.40;99.90;;;;;;4967836;28;20231;-65
2022/06/08 03:37:50;;;;;;;4.00;3.10;;;14.40;99.90;;;;;;4964556;28;20188;-66
2022/06/08 03:40:16;;;;;;;2.87;2.67;;;14.60;99.90;;;;;;4970256;28;20212;-66
2022/06/08 03:42:42;;;;;;;3.60;2.65;;;14.50;99.90;;;;;;4967033;28;20653;-68
2022/06/08 03:45:09;;;;;;;2.80;2.60;;;14.50;99.90;;;;;;4968676;28;20274;-65
2022/06/08 03:47:41;;;;;;;3.35;3.10;;;14.60;99.90;;;;;;4969921;28;20443;-65
2022/06/08 03:50:12;;;;;;;3.42;3.05;;;14.60;99.90;;;;;;4967934;28;20195;-68
2022/06/08 03:52:40;;;;;;;2.90;2.70;;;14.70;99.90;;;;;;4970989;28;20220;-65
2022/06/08 03:55:08;;;;;;;2.85;2.40;;;14.90;99.90;;;;;;4972091;28;20534;-65
2022/06/08 03:57:34;;;;;;;7.75;3.00;;;14.70;99.90;;;;;;4974315;28;20719;-66
2022/06/08 04:00:03;;;;;;;3.50;2.75;;;14.70;99.90;;;;;;4974317;28;20627;-66
2022/06/08 04:02:29;;;;;;;4.50;2.35;;;14.90;99.90;;;;;;4969670;28;20181;-66
2022/06/08 04:04:55;;;;;;;2.50;2.30;;;14.80;99.90;;;;;;4975074;28;20180;-65
2022/06/08 04:07:21;;;;;;;2.70;2.50;;;15.00;99.90;;;;;;4974371;28;20730;-65
2022/06/08 04:09:47;;;;;;;5.10;2.77;;;15.00;99.90;;;;;;4967846;28;20864;-66
2022/06/08 04:12:13;;;;;;;2.50;2.30;;;15.10;99.90;;;;;;4974983;28;20549;-66
2022/06/08 04:14:39;;;;;;;4.05;2.38;;;15.20;99.90;;;;;;4974715;28;20419;-65
2022/06/08 04:17:07;;;;;;;4.67;2.30;;;15.40;99.90;;;;;;4972561;28;20270;-66
2022/06/08 04:19:33;;;;;;;2.80;2.20;;;15.50;99.90;;;;;;4974006;28;20560;-66
2022/06/08 04:21:59;;;;;;;2.77;2.30;;;15.60;99.90;;;;;;4973832;28;20184;-67
2022/06/08 04:24:24;;;;;;;3.93;2.10;;;15.70;99.90;;;;;;4973017;28;20710;-66
2022/06/08 04:26:51;;;;;;;4.13;3.13;;;16.00;99.90;;;;;;4972724;28;20220;-66
2022/06/08 04:29:18;;;;;;;4.47;3.65;;;15.80;99.90;;;;;;4974557;28;20453;-68
2022/06/08 04:31:44;;;;;;;2.35;2.25;;;16.00;99.90;;;;;;4964871;28;20196;-65
2022/06/08 04:34:11;;;;;;;2.70;2.00;;;16.30;99.90;;;;;;4973706;28;20990;-66
2022/06/08 04:36:39;;;;;;;3.92;1.95;;;16.30;99.90;;;;;;4967869;28;20432;-67
2022/06/08 04:39:07;;;;;;;2.78;2.15;;;16.20;99.90;;;;;;4973192;28;20206;-65
2022/06/08 04:41:34;;;;;;;3.25;2.28;;;16.30;99.90;;;;;;4969091;28;20198;-65
2022/06/08 04:44:00;;;;;;;4.30;2.08;;;16.50;99.90;;;;;;4974014;28;20196;-67
2022/06/08 04:46:26;;;;;;;4.57;3.00;;;16.30;99.90;;;;;;4967491;28;20231;-65
2022/06/08 04:48:51;;;;;;;2.27;2.07;;;16.60;99.90;;;;;;4968001;28;20478;-65
2022/06/08 04:51:17;;;;;;;2.83;2.10;;;16.40;99.90;;;;;;4974086;28;20642;-65
2022/06/08 04:53:44;;;;;;;3.40;2.70;;;16.50;99.90;;;;;;4973731;28;20180;-65
2022/06/08 04:56:10;;;;;;;4.68;2.72;;;16.70;99.90;;;;;;4967396;28;20443;-65
2022/06/08 04:58:36;;;;;;;4.95;2.42;;;16.60;99.90;;;;;;4972881;28;20609;-66
2022/06/08 05:01:04;;;;;;;3.23;2.30;;;16.50;99.90;;;;;;4971874;28;20188;-65
2022/06/08 05:03:30;;;;;;;3.75;2.40;;;16.60;99.90;;;;;;4967097;28;20311;-67
2022/06/08 05:05:57;;;;;;;5.18;2.20;;;16.40;99.90;;;;;;4972654;28;20644;-65
2022/06/08 05:08:24;;;;;;;2.88;2.40;;;16.50;99.90;;;;;;4972296;28;20339;-65
2022/06/08 05:10:51;;;;;;;5.10;2.55;;;16.50;99.90;;;;;;4966104;28;20247;-68
2022/06/08 05:13:18;;;;;;;2.95;2.33;;;16.30;99.90;;;;;;4959217;28;20181;-65
2022/06/08 05:15:44;;;;;;;4.00;2.50;;;16.40;99.90;;;;;;4972918;28;20184;-66
2022/06/08 05:18:12;;;;;;;4.45;2.00;;;16.30;99.90;;;;;;4968585;28;20188;-66
2022/06/08 05:20:40;;;;;;;2.33;2.13;;;16.50;99.90;;;;;;4973101;28;20220;-68
2022/06/08 05:23:08;;;;;;;2.88;2.30;;;16.50;99.90;;;;;;4972182;28;20196;-65
2022/06/08 05:25:38;;;;;;;4.30;2.10;;;16.70;99.90;;;;;;4965767;28;20219;-66
2022/06/08 05:28:06;;;;;;;3.17;2.10;;;17.00;99.90;;;;;;4968750;28;20670;-66
2022/06/08 05:30:32;;;;;;;2.50;2.25;;;17.30;99.90;;;;;;4973571;28;20208;-68
2022/06/08 05:32:59;;;;;;;4.32;2.10;;;17.50;99.90;;;;;;4971579;28;20218;-65
2022/06/08 05:35:26;;;;;;;2.42;1.92;;;17.50;99.90;;;;;;4966682;28;20199;-68
2022/06/08 05:37:52;;;;;;;2.72;2.13;;;17.60;99.90;;;;;;4971015;28;20184;-66
2022/06/08 05:40:18;;;;;;;5.68;1.95;;;17.70;99.90;;;;;;4972817;28;20287;-66
2022/06/08 05:42:43;;;;;;;3.23;1.87;;;17.90;99.90;;;;;;4967724;28;20278;-70
2022/06/08 05:45:21;;;;;;;2.90;2.07;;;18.00;99.90;;;;;;4972284;28;20435;-65
2022/06/08 05:47:47;;;;;;;4.32;2.47;;;18.00;99.90;;;;;;4962345;28;20219;-66
2022/06/08 05:50:13;;;;;;;3.30;1.90;;;17.80;99.90;;;;;;4972145;28;20229;-67
2022/06/08 05:52:39;;;;;;;2.38;2.15;;;17.90;99.90;;;;;;4972406;28;20187;-65
2022/06/08 05:55:05;;;;;;;3.25;2.00;;;18.30;99.90;;;;;;4972223;28;20223;-71
2022/06/08 05:57:31;;;;;;;2.90;2.00;;;18.50;99.90;;;;;;4971603;28;20232;-65
2022/06/08 05:59:57;;;;;;;2.00;1.77;;;18.60;99.90;;;;;;4972327;28;20208;-66
2022/06/08 06:02:23;;;;;;;2.80;1.60;;;18.70;99.90;;;;;;4965678;28;20677;-68
2022/06/08 06:04:48;;;;;;;2.10;1.90;;;18.90;99.70;;;;;;4972401;28;20203;-66
2022/06/08 06:07:14;;;;;;;2.67;1.70;;;18.90;99.90;;;;;;4971709;28;20566;-66
2022/06/08 06:09:41;;;;;;;3.83;1.70;;;19.20;99.90;;;;;;4966732;28;20228;-67
2022/06/08 06:12:07;;;;;;;7.90;4.60;;;19.30;99.30;;;;;;4970465;28;20228;-68
2022/06/08 06:14:33;;;;;;;4.32;2.05;;;19.70;98.50;;;;;;4964075;28;20187;-67
2022/06/08 06:16:59;;;;;;;6.30;1.97;;;19.60;97.20;;;;;;4968028;28;20196;-65
2022/06/08 06:19:25;;;;;;;2.23;1.90;;;19.60;97.90;;;;;;4971791;28;20665;-65
2022/06/08 06:21:51;;;;;;;3.08;2.13;;;20.10;97.70;;;;;;4959119;28;20810;-66
2022/06/08 06:24:18;;;;;;;1.90;1.70;;;19.90;97.70;;;;;;4972119;28;20184;-64
2022/06/08 06:26:43;;;;;;;2.67;1.70;;;20.00;97.20;;;;;;4969239;28;20247;-63
2022/06/08 06:29:10;;;;;;;2.67;1.60;;;20.20;97.00;;;;;;4973382;28;20196;-64
2022/06/08 06:31:49;;;;;;;3.47;1.95;;;20.30;96.20;;;;;;4965645;28;20227;-64
2022/06/08 06:34:17;;;;;;;3.75;2.03;;;20.50;95.90;;;;;;4968860;28;20172;-64
2022/06/08 06:36:44;;;;;;;4.38;2.05;;;20.50;95.70;;;;;;4964968;28;20208;-64
2022/06/08 06:39:11;;;;;;;2.10;1.85;;;20.40;95.80;;;;;;4965205;28;20287;-65
2022/06/08 06:41:38;;;;;;;3.17;2.38;;;20.60;95.80;;;;;;4963740;28;20197;-68
2022/06/08 06:44:04;;;;;;;2.53;1.88;;;20.60;95.30;;;;;;4970844;28;20191;-65
2022/06/08 06:46:29;;;;;;;1.75;1.65;;;20.70;95.50;;;;;;4968070;28;20205;-65
2022/06/08 06:48:55;;;;;;;2.10;1.80;;;20.90;95.20;;;;;;4970613;28;20286;-66
2022/06/08 06:51:21;;;;;;;2.57;1.63;;;20.80;94.50;;;;;;4970945;28;20852;-64
2022/06/08 06:53:46;;;;;;;2.63;1.90;;;20.90;94.50;;;;;;4964569;28;20193;-64
2022/06/08 06:56:12;;;;;;;4.60;1.97;;;20.90;95.10;;;;;;4969109;28;20200;-64
2022/06/08 06:58:38;;;;;;;4.10;2.00;;;21.00;94.30;;;;;;4970760;28;20211;-68
2022/06/08 07:01:05;;;;;;;2.87;1.40;;;21.20;93.70;;;;;;4968854;28;20637;-69
2022/06/08 07:03:31;;;;;;;3.30;2.15;;;21.40;93.40;;;;;;4969437;28;20466;-66
2022/06/08 07:05:57;;;;;;;3.13;1.77;;;21.30;93.50;;;;;;4969795;28;20189;-65
2022/06/08 07:08:23;;;;;;;3.00;2.10;;;21.40;94.10;;;;;;4971722;28;20187;-66
2022/06/08 07:13:33;;;;;;;3.08;1.80;;;21.90;93.40;;;;;;4971030;28;20191;-65
2022/06/08 07:16:00;;;;;;;2.67;1.47;;;22.20;92.60;;;;;;4969711;28;20196;-65
2022/06/08 07:18:25;;;;;;;3.58;1.95;;;21.90;92.40;;;;;;4968864;28;20438;-64
2022/06/08 07:20:52;;;;;;;3.80;1.90;;;22.00;92.80;;;;;;4975579;28;20187;-65
2022/06/08 07:23:17;;;;;;;5.90;1.73;;;22.10;92.70;;;;;;4964552;28;20192;-65
2022/06/08 07:25:43;;;;;;;3.40;2.43;;;21.80;92.80;;;;;;4966819;28;20990;-64
2022/06/08 07:28:08;;;;;;;3.17;1.73;;;22.00;92.30;;;;;;4973155;28;21012;-64
2022/06/08 07:30:34;;;;;;;2.50;1.90;;;22.20;91.80;;;;;;4969666;28;20215;-65
2022/06/08 07:33:00;;;;;;;4.70;1.87;;;22.30;91.30;;;;;;4964113;28;20646;-66
2022/06/08 07:35:25;;;;;;;5.20;2.67;;;22.70;91.10;;;;;;4970077;28;20181;-66
2022/06/08 07:37:51;;;;;;;6.87;1.93;;;23.50;91.00;;;;;;4969009;28;20196;-65
2022/06/08 07:40:17;;;;;;;4.57;1.87;;;25.20;86.10;;;;;;4968416;28;20216;-65
2022/06/08 07:42:42;;;;;;;1.57;1.40;;;26.90;80.20;;;;;;4969543;28;20302;-65
2022/06/08 07:45:10;;;;;;;3.60;1.80;;;28.20;73.90;;;;;;4965699;28;20217;-65
2022/06/08 07:49:36;;;;;;;2.20;1.57;;;29.70;67.40;;;;;;4965266;28;20724;-67
2022/06/08 07:50:23;;;;;;;2.90;1.70;;;30.70;62.80;;;;;;4970330;28;21012;-65
2022/06/08 07:52:48;;;;;;;2.23;1.40;;;32.20;58.20;;;;;;4972009;28;20443;-65
2022/06/08 07:55:14;;;;;;;1.80;1.40;;;32.60;55.40;;;;;;4966340;28;20453;-66
2022/06/08 07:57:40;;;;;;;2.00;1.40;;;32.60;53.10;;;;;;4972471;28;20607;-65
2022/06/08 08:00:06;;;;;;;2.10;1.50;;;32.40;53.40;;;;;;4970258;28;20204;-66
2022/06/08 08:02:32;;;;;;;4.60;1.67;;;32.90;53.00;;;;;;4967952;28;20721;-65
2022/06/08 08:04:58;;;;;;;2.50;1.77;;;33.90;50.00;;;;;;4970793;28;20538;-65
2022/06/08 08:07:23;;;;;;;2.93;1.60;;;33.90;49.90;;;;;;4969996;28;20212;-67
2022/06/08 08:09:49;;;;;;;4.70;1.90;;;34.00;50.10;;;;;;4965111;28;20208;-66
2022/06/08 08:12:15;;;;;;;2.13;1.40;;;33.90;49.00;;;;;;4969362;28;20280;-65
2022/06/08 08:14:41;;;;;;;2.27;1.50;;;33.60;48.90;;;;;;4969470;28;20195;-66
2022/06/08 08:17:08;;;;;;;3.30;1.50;;;34.40;47.10;;;;;;4968293;28;20538;-65
2022/06/08 08:19:34;;;;;;;9.10;1.80;;;34.20;47.50;;;;;;4969778;28;20471;-64
2022/06/08 08:22:00;;;;;;;4.67;1.80;;;35.20;46.60;;;;;;4970411;28;20494;-66
2022/06/08 08:24:27;;;;;;;2.27;1.60;;;36.20;44.90;;;;;;4959898;28;20487;-65
2022/06/08 08:26:52;;;;;;;3.87;1.60;;;35.30;43.40;;;;;;4975561;28;20204;-66
2022/06/08 08:29:19;;;;;;;2.80;1.60;;;34.80;44.00;;;;;;4969126;28;20833;-65
2022/06/08 08:31:45;;;;;;;2.23;1.40;;;34.30;45.10;;;;;;4965880;28;20226;-65
2022/06/08 08:34:11;;;;;;;3.37;1.30;;;34.20;44.40;;;;;;4977607;28;20462;-65
2022/06/08 08:36:36;;;;;;;4.17;1.70;;;34.30;44.90;;;;;;4971366;28;20447;-65
2022/06/08 08:39:04;;;;;;;1.60;1.33;;;34.50;43.70;;;;;;4969781;28;20295;-65
2022/06/08 08:44:20;;;;;;;2.70;1.60;;;35.20;42.60;;;;;;4967840;28;20461;-65
2022/06/08 08:47:09;;;;;;;2.63;1.80;;;35.20;42.10;;;;;;4968892;28;20547;-65
2022/06/08 08:49:37;;;;;;;1.87;1.77;;;34.90;43.20;;;;;;4973768;28;20459;-65
2022/06/08 08:52:22;;;;;;;2.93;2.20;;;35.40;42.30;;;;;;4967225;28;20467;-65
2022/06/08 08:54:57;;;;;;;2.50;1.27;;;36.20;42.80;;;;;;4970309;28;20793;-66
2022/06/08 08:57:42;;;;;;;4.00;1.50;;;36.80;39.50;;;;;;4971704;28;20848;-66
2022/06/08 09:00:39;;;;;;;3.90;1.67;;;36.10;38.60;;;;;;4966502;28;20453;-65
2022/06/08 09:03:16;;;;;;;4.20;1.33;;;35.10;41.00;;;;;;4966420;28;20957;-67
2022/06/08 09:05:44;;;;;;;2.63;1.43;;;34.90;41.80;;;;;;4976506;28;20980;-66
2022/06/08 09:08:11;;;;;;;1.83;1.40;;;35.90;41.20;;;;;;4965902;28;20440;-66
2022/06/08 09:10:37;;;;;;;3.10;1.63;;;36.00;41.50;;;;;;4964545;28;20464;-66
2022/06/08 09:13:04;;;;;;;2.70;1.57;;;35.30;41.20;;;;;;4965476;28;20514;-65
2022/06/08 09:15:51;;;;;;;2.13;1.20;;;34.40;41.50;;;;;;4974941;28;20467;-66
2022/06/08 09:18:28;;;;;;;2.97;1.17;;;34.40;41.90;;;;;;4971610;28;20526;-65
2022/06/08 09:20:54;;;;;;;1.60;1.37;;;34.40;42.20;;;;;;4972999;28;20439;-66
2022/06/08 09:23:33;;;;;;;2.73;1.37;;;34.30;42.10;;;;;;4972079;28;20995;-67
2022/06/08 09:26:04;;;;;;;2.40;1.10;;;34.60;42.00;;;;;;4970620;28;20996;-68
2022/06/08 09:28:32;;;;;;;2.87;1.73;;;34.40;40.60;;;;;;4967474;28;20877;-66
2022/06/08 09:30:58;;;;;;;2.77;1.70;;;35.40;40.80;;;;;;4970887;28;20448;-65
2022/06/08 09:33:31;;;;;;;1.60;1.00;;;35.30;41.30;;;;;;4971782;28;20436;-65
2022/06/08 09:36:01;;;;;;;2.37;1.60;;;35.70;39.80;;;;;;4973494;28;20531;-65
2022/06/08 09:38:29;;;;;;;3.07;1.20;;;35.50;38.30;;;;;;4971832;28;20443;-65
2022/06/08 09:41:13;;;;;;;2.73;1.43;;;36.30;38.80;;;;;;4971403;28;20451;-65
2022/06/08 09:43:53;;;;;;;2.90;1.50;;;36.20;36.70;;;;;;4972371;28;20940;-65
2022/06/08 09:51:25;;;;;;;1.80;1.50;;;36.30;36.10;;;;;;4962012;28;20985;-65
2022/06/08 09:52:30;;;;;;;1.70;1.30;;;37.00;36.20;;;;;;4965270;28;20498;-65
2022/06/08 09:55:14;;;;;;;4.83;1.43;;;35.90;36.10;;;;;;4968550;28;20526;-65
2022/06/08 09:58:13;;;;;;;2.23;1.27;;;35.60;36.60;;;;;;4971240;28;20439;-65
2022/06/08 10:01:03;;;;;;;2.33;1.33;;;36.10;36.60;;;;;;4971879;28;20448;-67
2022/06/08 10:03:56;;;;;;;1.10;0.90;;;35.60;35.70;;;;;;4967784;28;20822;-65
2022/06/08 10:06:40;;;;;;;2.57;1.10;;;35.30;35.90;;;;;;4966274;28;20456;-64
2022/06/08 10:09:41;;;;;;;5.03;1.50;;;34.50;36.40;;;;;;4969715;28;20455;-66
2022/06/08 10:12:09;;;;;;;3.70;1.50;;;32.80;38.60;;;;;;4974296;28;20456;-64
2022/06/08 10:14:47;;;;;;;3.53;1.57;;;31.60;40.50;;;;;;4970697;28;20445;-67
2022/06/08 10:17:18;;;;;;;2.47;1.30;;;30.80;41.20;;;;;;4970386;28;20443;-65
2022/06/08 10:19:56;;;;;;;2.53;1.30;;;31.20;41.70;;;;;;4973966;28;20507;-64
2022/06/08 10:22:27;;;;;;;2.00;1.30;;;31.20;41.30;;;;;;4974180;28;20471;-64
2022/06/08 10:25:00;;;;;;;2.47;1.13;;;30.50;41.90;;;;;;4970851;28;20955;-67
2022/06/08 10:27:34;;;;;;;2.70;1.53;;;30.30;43.00;;;;;;4966379;28;20503;-66
2022/06/08 10:30:07;;;;;;;3.30;1.50;;;30.10;43.70;;;;;;4970645;28;20464;-66
2022/06/08 10:32:41;;;;;;;3.00;1.77;;;30.00;43.50;;;;;;4970404;28;20527;-64
2022/06/08 10:35:17;;;;;;;3.13;1.70;;;31.20;42.80;;;;;;4967379;28;20427;-66
2022/06/08 10:37:44;;;;;;;2.20;1.40;;;31.50;40.50;;;;;;4968624;28;20453;-65
2022/06/08 10:40:18;;;;;;;1.87;1.37;;;32.60;41.50;;;;;;4967379;28;20935;-65
2022/06/08 10:42:46;;;;;;;3.40;1.90;;;33.30;39.90;;;;;;4970898;28;20447;-67
2022/06/08 10:45:23;;;;;;;2.40;1.77;;;33.60;38.50;;;;;;4974098;28;20527;-65
2022/06/08 10:48:04;;;;;;;3.70;1.83;;;35.00;38.80;;;;;;4972814;28;20528;-67
2022/06/08 10:50:39;;;;;;;3.13;1.60;;;35.60;36.70;;;;;;4970243;28;20491;-65
2022/06/08 10:56:38;;;;;;;1.30;1.20;;;35.90;35.30;;;;;;4964118;28;20437;-66
2022/06/08 10:59:03;;;;;;;1.83;1.00;;;36.20;34.70;;;;;;4965845;28;21055;-67
2022/06/08 11:01:54;;;;;;;1.40;1.10;;;36.10;31.30;;;;;;4969330;28;20574;-64
2022/06/08 11:04:32;;;;;;;2.80;1.20;;;35.30;32.20;;;;;;4964473;28;20267;-65
2022/06/08 11:07:00;;;;;;;3.03;2.20;;;35.30;32.30;;;;;;4970428;28;20467;-65
2022/06/08 11:09:32;;;;;;;1.80;1.60;;;34.50;33.80;;;;;;4970854;28;20458;-66
2022/06/08 11:12:11;;;;;;;2.73;1.50;;;34.80;35.30;;;;;;4964591;28;20440;-64
2022/06/08 11:14:43;;;;;;;3.20;3.00;;;34.90;35.20;;;;;;4973460;28;20507;-65
2022/06/08 11:17:31;;;;;;;1.30;1.20;;;34.50;35.00;;;;;;4965412;28;20443;-66
2022/06/08 11:20:03;;;;;;;2.57;1.10;;;35.00;34.30;;;;;;4970030;28;20471;-66
2022/06/08 11:22:38;;;;;;;1.27;1.03;;;34.70;31.90;;;;;;4970533;28;21102;-64
2022/06/08 11:25:10;;;;;;;2.27;1.00;;;33.30;33.70;;;;;;4967127;28;20439;-65
2022/06/08 11:27:38;;;;;;;1.83;1.27;;;33.20;34.30;;;;;;4970615;28;20442;-65
2022/06/08 11:30:23;;;;;;;1.87;1.47;;;33.00;35.00;;;;;;4970388;28;20554;-65
2022/06/08 11:33:16;;;;;;;1.43;1.10;;;32.70;35.40;;;;;;4972475;28;20496;-66
2022/06/08 11:36:10;;;;;;;1.30;1.10;;;31.70;35.40;;;;;;4969877;28;20472;-65
2022/06/08 11:38:40;;;;;;;3.17;1.10;;;31.40;37.10;;;;;;4971874;28;21028;-68
2022/06/08 11:41:21;;;;;;;1.83;1.40;;;31.00;38.00;;;;;;4967363;28;20587;-67
2022/06/08 11:43:49;;;;;;;1.50;1.40;;;29.80;38.70;;;;;;4970611;28;21219;-65
2022/06/08 11:46:40;;;;;;;4.40;1.40;;;29.00;41.00;;;;;;4962868;28;20580;-69
2022/06/08 11:49:31;;;;;;;1.80;1.43;;;28.40;42.00;;;;;;4966737;28;20464;-65
2022/06/08 11:51:57;;;;;;;2.20;1.40;;;27.50;42.60;;;;;;4970661;28;20451;-64
2022/06/08 11:54:33;;;;;;;1.37;1.13;;;27.20;44.70;;;;;;4970935;28;20530;-65
2022/06/08 11:57:15;;;;;;;1.00;0.90;;;27.00;44.70;;;;;;4968460;28;20995;-65
2022/06/08 11:59:44;;;;;;;2.30;1.33;;;26.90;45.30;;;;;;4970346;28;20792;-67
2022/06/08 12:02:37;;;;;;;1.60;1.17;;;26.80;44.90;;;;;;4966302;28;20459;-65
2022/06/08 12:05:07;;;;;;;2.30;1.20;;;26.80;45.20;;;;;;4967648;28;20453;-67
2022/06/08 12:07:48;;;;;;;2.30;1.60;;;26.70;45.40;;;;;;4972810;28;20494;-65
2022/06/08 12:10:18;;;;;;;1.47;0.90;;;26.50;45.70;;;;;;4964069;28;20557;-65
2022/06/08 12:12:45;;;;;;;1.83;1.10;;;26.60;45.50;;;;;;4970397;28;20479;-66
2022/06/08 12:15:36;;;;;;;1.30;1.07;;;26.90;45.20;;;;;;4972748;28;20513;-65
2022/06/08 12:18:37;;;;;;;1.67;1.10;;;26.80;43.60;;;;;;4970442;28;20815;-65
2022/06/08 12:21:28;;;;;;;2.20;1.13;;;26.40;44.80;;;;;;4967393;28;20870;-66
2022/06/08 12:23:56;;;;;;;2.10;1.43;;;26.20;45.10;;;;;;4973239;28;20966;-65
2022/06/08 12:26:24;;;;;;;2.10;1.40;;;26.20;46.20;;;;;;4971958;28;20981;-65
2022/06/08 12:29:20;;;;;;;1.40;1.10;;;26.00;46.30;;;;;;4974228;28;20471;-65
2022/06/08 12:31:47;;;;;;;1.57;1.10;;;25.90;45.80;;;;;;4978975;28;20536;-66
2022/06/08 12:34:36;;;;;;;2.77;1.20;;;25.90;45.70;;;;;;4974093;28;20436;-65
2022/06/08 12:37:21;;;;;;;2.80;1.07;;;25.80;46.10;;;;;;4968031;28;20440;-68
2022/06/08 12:39:47;;;;;;;1.63;1.40;;;25.80;47.50;;;;;;4969620;28;21005;-65
2022/06/08 12:42:33;;;;;;;1.53;1.00;;;26.00;45.90;;;;;;4972836;28;20549;-65
2022/06/08 12:45:00;;;;;;;1.10;1.00;;;26.10;46.00;;;;;;4973501;28;20622;-64
2022/06/08 12:47:45;;;;;;;1.60;1.20;;;26.00;46.60;;;;;;4969287;28;20798;-67
2022/06/08 12:50:17;;;;;;;1.53;1.10;;;25.80;46.20;;;;;;4966749;28;20467;-65
2022/06/08 12:52:43;;;;;;;1.43;1.07;;;25.90;47.50;;;;;;4973370;28;20429;-66
2022/06/08 12:55:22;;;;;;;1.07;0.97;;;25.90;46.00;;;;;;4972505;28;20446;-65
2022/06/08 12:57:48;;;;;;;2.43;1.70;;;25.80;46.00;;;;;;4963508;28;20448;-65
2022/06/08 13:00:25;;;;;;;3.13;1.17;;;25.90;46.40;;;;;;4973094;28;20460;-64
2022/06/08 13:02:52;;;;;;;3.50;1.50;;;26.00;46.10;;;;;;4965986;28;20946;-65
2022/06/08 13:05:22;;;;;;;1.57;1.17;;;26.10;46.80;;;;;;4970211;28;20461;-66
2022/06/08 13:07:48;;;;;;;2.13;1.13;;;26.20;46.30;;;;;;4972554;28;20438;-65
2022/06/08 13:10:15;;;;;;;1.67;1.17;;;26.20;46.00;;;;;;4968611;28;20469;-64
2022/06/08 13:12:53;;;;;;;2.33;1.20;;;26.20;46.10;;;;;;4973384;28;20617;-64
2022/06/08 13:15:24;;;;;;;2.87;1.57;;;26.10;46.50;;;;;;4970484;28;21137;-64
2022/06/08 13:17:51;;;;;;;4.00;1.57;;;26.20;46.90;;;;;;4973421;28;20531;-66
2022/06/08 13:20:20;;;;;;;1.10;1.00;;;26.10;46.60;;;;;;4972903;28;20457;-65
2022/06/08 13:22:46;;;;;;;1.70;1.50;;;26.30;46.60;;;;;;4972336;28;20458;-66
2022/06/08 13:25:17;;;;;;;1.33;1.10;;;26.30;47.20;;;;;;4970759;28;20449;-65
2022/06/08 13:27:44;;;;;;;2.97;1.40;;;26.40;47.00;;;;;;4971838;28;20194;-65